createdAt,value
2022-09-28T00:00:16.620Z,90.58
2022-09-28T00:01:22.143Z,90.77
2022-09-28T00:02:25.789Z,90.82
2022-09-28T00:03:29.153Z,90.79
2022-09-28T00:04:33.365Z,90.81
2022-09-28T00:05:36.078Z,90.38
2022-09-28T00:06:39.174Z,90.35
2022-09-28T00:07:42.210Z,90.61
2022-09-28T00:08:45.004Z,90.72
2022-09-28T00:09:47.677Z,90.84
2022-09-28T00:10:56.125Z,90.85
2022-09-28T00:11:59.733Z,91.04
2022-09-28T00:13:02.922Z,91.30
2022-09-28T00:14:07.655Z,90.61
2022-09-28T00:15:10.760Z,89.64
2022-09-28T00:16:17.419Z,89.32
2022-09-28T00:17:22.952Z,89.23
2022-09-28T00:18:25.698Z,89.10
2022-09-28T00:19:28.427Z,89.50
2022-09-28T00:20:31.218Z,89.83
2022-09-28T00:21:36.949Z,90.34
2022-09-28T00:22:40.101Z,90.42
2022-09-28T00:24:01.968Z,90.38
2022-09-28T00:25:06.732Z,90.03
2022-09-28T00:26:09.306Z,89.85
2022-09-28T00:27:15.233Z,90.11
2022-09-28T00:28:17.965Z,89.94
2022-09-28T00:29:27.158Z,89.91
2022-09-28T00:30:29.806Z,89.74
2022-09-28T00:31:34.247Z,87.83
2022-09-28T00:32:37.043Z,86.75
2022-09-28T00:33:40.832Z,87.01
2022-09-28T00:34:49.098Z,85.05
2022-09-28T00:35:56.649Z,84.75
2022-09-28T00:37:00.390Z,84.13
2022-09-28T00:38:04.029Z,82.92
2022-09-28T00:39:08.909Z,82.94
2022-09-28T00:40:11.534Z,82.88
2022-09-28T00:41:14.644Z,83.28
2022-09-28T00:43:30.458Z,82.81
2022-09-28T00:44:42.161Z,83.38
2022-09-28T00:45:44.993Z,83.44
2022-09-28T00:46:47.656Z,83.30
2022-09-28T00:47:54.655Z,82.83
2022-09-28T00:49:03.426Z,81.54
2022-09-28T00:50:18.723Z,81.11
2022-09-28T00:51:25.303Z,81.60
2022-09-28T00:52:42.832Z,82.10
2022-09-28T00:53:45.702Z,82.74
2022-09-28T00:54:51.012Z,82.96
2022-09-28T00:56:04.519Z,83.22
2022-09-28T00:57:07.386Z,83.85
2022-09-28T00:58:15.652Z,84.32
2022-09-28T00:59:18.569Z,82.39
2022-09-28T01:00:22.124Z,82.35
2022-09-28T01:01:25.071Z,82.71
2022-09-28T01:02:28.227Z,83.22
2022-09-28T01:03:32.272Z,82.88
2022-09-28T01:04:34.903Z,83.34
2022-09-28T01:05:39.814Z,82.82
2022-09-28T01:06:45.768Z,82.96
2022-09-28T01:07:48.964Z,83.14
2022-09-28T01:08:53.520Z,84.07
2022-09-28T01:09:56.541Z,84.13
2022-09-28T01:11:00.313Z,83.64
2022-09-28T01:12:03.290Z,82.69
2022-09-28T01:13:06.259Z,82.50
2022-09-28T01:14:12.459Z,82.94
2022-09-28T01:15:15.816Z,82.80
2022-09-28T01:16:38.608Z,83.50
2022-09-28T01:18:16.304Z,83.33
2022-09-28T01:19:40.888Z,83.49
2022-09-28T01:20:57.255Z,83.46
2022-09-28T01:22:21.354Z,82.56
2022-09-28T01:24:05.845Z,81.91
2022-09-28T01:25:25.273Z,80.78
2022-09-28T01:26:30.779Z,81.37
2022-09-28T01:27:43.185Z,81.64
2022-09-28T01:28:48.298Z,81.53
2022-09-28T01:30:08.168Z,81.42
2022-09-28T01:31:18.077Z,81.89
2022-09-28T01:32:29.530Z,81.42
2022-09-28T01:33:46.736Z,81.44
2022-09-28T01:35:10.267Z,81.46
2022-09-28T01:36:31.140Z,80.46
2022-09-28T01:37:44.553Z,80.78
2022-09-28T01:38:52.562Z,81.37
2022-09-28T01:39:58.994Z,81.46
2022-09-28T01:41:03.320Z,81.32
2022-09-28T01:42:17.868Z,80.64
2022-09-28T01:43:26.062Z,80.72
2022-09-28T01:44:33.072Z,80.46
2022-09-28T01:45:45.886Z,80.61
2022-09-28T01:46:51.094Z,80.44
2022-09-28T01:47:58.381Z,80.70
2022-09-28T01:49:11.361Z,80.58
2022-09-28T01:50:20.575Z,79.65
2022-09-28T01:51:30.516Z,79.96
2022-09-28T01:52:54.658Z,79.58
2022-09-28T01:54:05.860Z,80.00
2022-09-28T01:55:31.731Z,80.59
2022-09-28T01:56:57.941Z,81.11
2022-09-28T01:58:23.519Z,80.36
2022-09-28T01:59:30.294Z,80.36
2022-09-28T02:00:35.714Z,79.80
2022-09-28T02:01:53.383Z,80.19
2022-09-28T02:03:04.863Z,79.30
2022-09-28T02:04:17.488Z,79.30
2022-09-28T02:05:34.142Z,79.20
2022-09-28T02:06:41.391Z,78.56
2022-09-28T02:08:14.044Z,78.68
2022-09-28T02:09:29.416Z,79.39
2022-09-28T02:10:42.923Z,79.70
2022-09-28T02:11:50.992Z,78.42
2022-09-28T02:13:04.978Z,78.41
2022-09-28T02:14:12.844Z,78.65
2022-09-28T02:15:20.978Z,78.68
2022-09-28T02:16:42.809Z,78.46
2022-09-28T02:17:45.698Z,78.67
2022-09-28T02:18:48.478Z,79.09
2022-09-28T02:19:51.595Z,79.29
2022-09-28T02:21:07.315Z,79.61
2022-09-28T02:22:30.938Z,80.26
2022-09-28T02:23:37.457Z,79.77
2022-09-28T02:24:46.980Z,79.60
2022-09-28T02:26:01.188Z,79.76
2022-09-28T02:27:12.869Z,78.56
2022-09-28T02:28:15.714Z,77.88
2022-09-28T02:29:18.793Z,77.44
2022-09-28T02:30:21.872Z,77.14
2022-09-28T02:31:24.702Z,78.08
2022-09-28T02:32:31.072Z,77.89
2022-09-28T02:33:42.229Z,78.93
2022-09-28T02:34:44.933Z,78.51
2022-09-28T02:35:47.920Z,78.86
2022-09-28T02:36:50.615Z,79.12
2022-09-28T02:37:55.278Z,78.81
2022-09-28T02:38:58.613Z,78.63
2022-09-28T02:40:01.790Z,78.84
2022-09-28T02:41:07.813Z,79.02
2022-09-28T02:42:40.711Z,78.53
2022-09-28T02:44:01.493Z,78.92
2022-09-28T02:45:22.714Z,79.06
2022-09-28T02:46:30.645Z,79.57
2022-09-28T02:47:57.760Z,79.79
2022-09-28T02:49:20.417Z,80.36
2022-09-28T02:50:40.220Z,79.43
2022-09-28T02:52:32.372Z,78.68
2022-09-28T02:53:50.496Z,77.92
2022-09-28T02:55:22.744Z,78.26
2022-09-28T02:56:47.659Z,78.57
2022-09-28T02:57:53.263Z,77.95
2022-09-28T02:59:29.238Z,77.64
2022-09-28T03:00:40.093Z,77.10
2022-09-28T03:01:48.347Z,76.27
2022-09-28T03:03:22.610Z,77.26
2022-09-28T03:04:37.691Z,77.44
2022-09-28T03:06:05.500Z,77.71
2022-09-28T03:07:21.831Z,78.52
2022-09-28T03:08:31.277Z,78.99
2022-09-28T03:09:40.273Z,79.53
2022-09-28T03:10:59.307Z,79.31
2022-09-28T03:12:09.457Z,79.66
2022-09-28T03:13:13.879Z,80.06
2022-09-28T03:14:17.412Z,80.75
2022-09-28T03:15:32.325Z,81.18
2022-09-28T03:16:35.359Z,81.25
2022-09-28T03:17:38.458Z,81.74
2022-09-28T03:18:41.455Z,81.72
2022-09-28T03:19:44.113Z,81.61
2022-09-28T03:20:47.055Z,81.87
2022-09-28T03:21:50.009Z,82.06
2022-09-28T03:23:19.599Z,82.05
2022-09-28T03:24:15.451Z,82.04
2022-09-28T03:25:18.404Z,81.88
2022-09-28T03:26:20.893Z,81.73
2022-09-28T03:27:23.480Z,81.35
2022-09-28T03:28:26.670Z,81.08
2022-09-28T03:29:31.564Z,81.56
2022-09-28T03:30:34.264Z,81.72
2022-09-28T03:31:36.848Z,82.28
2022-09-28T03:32:40.335Z,82.60
2022-09-28T03:33:42.993Z,82.50
2022-09-28T03:34:45.633Z,82.53
2022-09-28T03:35:50.579Z,82.83
2022-09-28T03:36:53.109Z,82.88
2022-09-28T03:37:56.986Z,82.77
2022-09-28T03:38:59.956Z,82.81
2022-09-28T03:40:04.171Z,83.05
2022-09-28T03:41:07.785Z,82.91
2022-09-28T03:42:10.544Z,83.03
2022-09-28T03:43:13.307Z,83.36
2022-09-28T03:44:15.940Z,81.72
2022-09-28T03:45:18.534Z,81.56
2022-09-28T03:46:21.110Z,81.74
2022-09-28T03:47:23.869Z,81.68
2022-09-28T03:48:32.428Z,80.62
2022-09-28T03:49:35.669Z,79.85
2022-09-28T03:50:38.353Z,79.57
2022-09-28T03:51:40.973Z,78.94
2022-09-28T03:52:43.848Z,78.72
2022-09-28T03:53:46.394Z,79.00
2022-09-28T03:54:49.486Z,78.96
2022-09-28T03:55:55.872Z,78.70
2022-09-28T03:56:58.626Z,78.88
2022-09-28T03:58:01.372Z,79.12
2022-09-28T03:59:04.744Z,79.32
2022-09-28T04:00:08.004Z,78.92
2022-09-28T04:01:16.783Z,78.84
2022-09-28T04:02:20.059Z,79.00
2022-09-28T04:03:22.717Z,79.12
2022-09-28T04:04:25.274Z,79.09
2022-09-28T04:05:27.866Z,79.57
2022-09-28T04:06:30.531Z,80.06
2022-09-28T04:07:33.372Z,80.17
2022-09-28T04:08:40.245Z,80.38
2022-09-28T04:09:42.928Z,80.43
2022-09-28T04:10:46.151Z,81.04
2022-09-28T04:12:03.309Z,81.56
2022-09-28T04:13:07.426Z,80.98
2022-09-28T04:14:10.132Z,80.43
2022-09-28T04:15:12.832Z,80.58
2022-09-28T04:16:18.218Z,80.31
2022-09-28T04:17:20.936Z,79.43
2022-09-28T04:18:24.545Z,80.11
2022-09-28T04:19:27.651Z,79.06
2022-09-28T04:20:30.145Z,78.75
2022-09-28T04:21:32.890Z,79.67
2022-09-28T04:22:37.923Z,79.29
2022-09-28T04:23:40.708Z,79.56
2022-09-28T04:24:43.795Z,79.79
2022-09-28T04:25:52.147Z,80.19
2022-09-28T04:27:14.811Z,80.27
2022-09-28T04:28:35.914Z,80.66
2022-09-28T04:29:42.082Z,80.91
2022-09-28T04:30:47.548Z,81.18
2022-09-28T04:31:52.294Z,81.15
2022-09-28T04:32:55.065Z,80.04
2022-09-28T04:33:58.034Z,80.55
2022-09-28T04:35:00.555Z,80.55
2022-09-28T04:36:03.482Z,81.01
2022-09-28T04:37:06.099Z,81.50
2022-09-28T04:38:08.864Z,81.36
2022-09-28T04:39:16.828Z,81.59
2022-09-28T04:40:19.780Z,81.67
2022-09-28T04:41:22.769Z,81.95
2022-09-28T04:42:25.815Z,81.93
2022-09-28T04:43:29.080Z,81.61
2022-09-28T04:44:31.709Z,81.37
2022-09-28T04:45:34.390Z,81.17
2022-09-28T04:46:37.200Z,81.71
2022-09-28T04:47:39.877Z,81.92
2022-09-28T04:48:42.489Z,81.84
2022-09-28T04:49:45.048Z,81.93
2022-09-28T04:50:56.888Z,81.90
2022-09-28T04:52:01.231Z,81.87
2022-09-28T04:53:04.269Z,81.81
2022-09-28T04:54:07.006Z,82.24
2022-09-28T04:55:12.346Z,82.34
2022-09-28T04:56:17.068Z,82.42
2022-09-28T04:57:19.788Z,82.70
2022-09-28T04:58:23.491Z,82.93
2022-09-28T04:59:30.233Z,83.26
2022-09-28T05:00:36.012Z,83.15
2022-09-28T05:01:38.649Z,82.82
2022-09-28T05:02:41.265Z,82.80
2022-09-28T05:03:44.670Z,82.09
2022-09-28T05:04:47.256Z,81.78
2022-09-28T05:05:53.344Z,81.66
2022-09-28T05:06:55.923Z,80.74
2022-09-28T05:08:02.372Z,80.68
2022-09-28T05:09:05.070Z,80.87
2022-09-28T05:10:07.893Z,80.64
2022-09-28T05:11:12.292Z,80.59
2022-09-28T05:12:14.854Z,80.92
2022-09-28T05:13:18.867Z,80.93
2022-09-28T05:14:24.656Z,81.64
2022-09-28T05:15:27.509Z,81.09
2022-09-28T05:16:33.927Z,81.55
2022-09-28T05:17:36.701Z,81.77
2022-09-28T05:18:40.126Z,82.00
2022-09-28T05:19:43.386Z,82.01
2022-09-28T05:20:46.037Z,82.24
2022-09-28T05:21:49.734Z,82.22
2022-09-28T05:22:53.671Z,82.32
2022-09-28T05:23:58.396Z,82.97
2022-09-28T05:25:03.153Z,83.34
2022-09-28T05:26:06.362Z,83.80
2022-09-28T05:27:09.026Z,83.92
2022-09-28T05:28:11.918Z,83.91
2022-09-28T05:29:14.613Z,84.13
2022-09-28T05:30:19.102Z,84.01
2022-09-28T05:31:21.887Z,84.31
2022-09-28T05:32:24.707Z,84.01
2022-09-28T05:33:28.013Z,84.22
2022-09-28T05:34:30.731Z,84.75
2022-09-28T05:35:34.263Z,84.96
2022-09-28T05:36:38.881Z,85.01
2022-09-28T05:37:41.683Z,85.53
2022-09-28T05:38:44.957Z,85.79
2022-09-28T05:39:47.588Z,86.14
2022-09-28T05:40:50.384Z,86.43
2022-09-28T05:41:53.169Z,86.57
2022-09-28T05:42:59.416Z,86.70
2022-09-28T05:44:02.177Z,86.79
2022-09-28T05:45:05.606Z,86.73
2022-09-28T05:46:08.610Z,87.06
2022-09-28T05:47:11.314Z,87.11
2022-09-28T05:48:16.260Z,87.29
2022-09-28T05:49:18.901Z,87.24
2022-09-28T05:50:21.602Z,87.41
2022-09-28T05:51:25.541Z,87.43
2022-09-28T05:52:28.241Z,87.41
2022-09-28T05:53:30.981Z,87.26
2022-09-28T05:54:33.634Z,87.24
2022-09-28T05:55:38.396Z,87.33
2022-09-28T05:56:41.303Z,87.65
2022-09-28T05:57:43.910Z,87.91
2022-09-28T05:58:46.644Z,88.04
2022-09-28T05:59:49.388Z,87.65
2022-09-28T06:00:56.402Z,87.71
2022-09-28T06:01:59.162Z,87.99
2022-09-28T06:03:09.211Z,88.32
2022-09-28T06:04:12.366Z,88.12
2022-09-28T06:05:14.997Z,87.95
2022-09-28T06:06:17.614Z,87.81
2022-09-28T06:07:21.122Z,87.67
2022-09-28T06:08:24.354Z,87.46
2022-09-28T06:09:27.002Z,87.38
2022-09-28T06:10:29.620Z,87.14
2022-09-28T06:11:32.807Z,87.03
2022-09-28T06:12:35.405Z,87.03
2022-09-28T06:13:38.793Z,86.82
2022-09-28T06:14:41.558Z,86.53
2022-09-28T06:15:46.497Z,86.63
2022-09-28T06:16:50.318Z,86.74
2022-09-28T06:18:04.792Z,86.62
2022-09-28T06:19:11.389Z,86.53
2022-09-28T06:20:14.184Z,86.56
2022-09-28T06:21:17.050Z,86.99
2022-09-28T06:22:19.597Z,87.15
2022-09-28T06:23:22.263Z,87.25
2022-09-28T06:24:24.885Z,87.30
2022-09-28T06:25:27.835Z,87.37
2022-09-28T06:26:31.031Z,87.62
2022-09-28T06:27:34.611Z,87.91
2022-09-28T06:28:37.654Z,88.06
2022-09-28T06:29:40.241Z,88.34
2022-09-28T06:30:44.288Z,88.71
2022-09-28T06:31:47.577Z,88.76
2022-09-28T06:33:00.260Z,88.79
2022-09-28T06:34:02.936Z,88.73
2022-09-28T06:35:06.285Z,88.71
2022-09-28T06:36:10.407Z,88.67
2022-09-28T06:37:13.593Z,88.62
2022-09-28T06:38:16.390Z,88.52
2022-09-28T06:39:19.060Z,88.36
2022-09-28T06:40:23.456Z,88.29
2022-09-28T06:41:26.172Z,88.20
2022-09-28T06:42:28.950Z,87.58
2022-09-28T06:43:34.589Z,85.08
2022-09-28T06:44:37.218Z,84.94
2022-09-28T06:45:43.437Z,84.04
2022-09-28T06:46:46.277Z,84.03
2022-09-28T06:47:53.563Z,84.45
2022-09-28T06:48:56.136Z,83.96
2022-09-28T06:49:58.864Z,83.52
2022-09-28T06:51:02.032Z,83.41
2022-09-28T06:52:04.989Z,83.70
2022-09-28T06:53:10.722Z,83.86
2022-09-28T06:54:14.382Z,83.83
2022-09-28T06:55:17.259Z,83.83
2022-09-28T06:56:21.382Z,81.77
2022-09-28T06:57:24.054Z,81.36
2022-09-28T06:58:28.342Z,81.31
2022-09-28T06:59:31.514Z,81.10
2022-09-28T07:00:36.515Z,79.81
2022-09-28T07:01:39.128Z,79.53
2022-09-28T07:03:02.219Z,77.59
2022-09-28T07:04:04.955Z,77.99
2022-09-28T07:05:09.722Z,78.29
2022-09-28T07:06:12.966Z,78.43
2022-09-28T07:07:16.342Z,78.87
2022-09-28T07:08:19.848Z,78.20
2022-09-28T07:09:32.490Z,78.10
2022-09-28T07:10:40.937Z,75.53
2022-09-28T07:11:44.907Z,74.40
2022-09-28T07:12:47.971Z,73.88
2022-09-28T07:13:51.567Z,74.08
2022-09-28T07:14:57.454Z,74.53
2022-09-28T07:16:01.558Z,75.02
2022-09-28T07:17:13.635Z,75.67
2022-09-28T07:18:18.906Z,76.21
2022-09-28T07:19:21.925Z,76.46
2022-09-28T07:20:25.619Z,76.64
2022-09-28T07:21:30.396Z,76.81
2022-09-28T07:22:42.926Z,76.93
2022-09-28T07:23:53.647Z,76.82
2022-09-28T07:24:57.843Z,76.39
2022-09-28T07:26:07.462Z,75.80
2022-09-28T07:27:10.549Z,76.30
2022-09-28T07:28:13.610Z,76.58
2022-09-28T07:29:19.182Z,76.52
2022-09-28T07:30:26.844Z,75.91
2022-09-28T07:31:29.833Z,75.75
2022-09-28T07:32:35.171Z,75.14
2022-09-28T07:33:38.164Z,74.32
2022-09-28T07:34:43.892Z,74.76
2022-09-28T07:35:55.364Z,75.08
2022-09-28T07:36:59.569Z,74.50
2022-09-28T07:38:05.061Z,73.70
2022-09-28T07:39:08.113Z,73.62
2022-09-28T07:40:29.784Z,73.62
2022-09-28T07:41:32.806Z,74.10
2022-09-28T07:42:36.460Z,73.91
2022-09-28T07:43:42.441Z,73.57
2022-09-28T07:44:45.231Z,73.10
2022-09-28T07:45:49.614Z,72.91
2022-09-28T07:46:52.407Z,72.66
2022-09-28T07:47:56.460Z,72.97
2022-09-28T07:48:59.247Z,71.68
2022-09-28T07:50:02.081Z,71.19
2022-09-28T07:51:05.349Z,72.62
2022-09-28T07:52:09.287Z,72.27
2022-09-28T07:53:12.072Z,71.42
2022-09-28T07:54:14.717Z,71.16
2022-09-28T07:55:17.479Z,72.46
2022-09-28T07:56:20.600Z,72.42
2022-09-28T07:57:24.207Z,70.28
2022-09-28T07:58:27.092Z,70.29
2022-09-28T07:59:31.110Z,70.90
2022-09-28T08:00:34.385Z,69.03
2022-09-28T08:01:37.043Z,69.47
2022-09-28T08:02:39.849Z,68.32
2022-09-28T08:03:47.370Z,68.66
2022-09-28T08:04:51.071Z,69.29
2022-09-28T08:06:01.041Z,69.25
2022-09-28T08:07:04.247Z,67.94
2022-09-28T08:08:11.226Z,67.42
2022-09-28T08:09:14.087Z,67.86
2022-09-28T08:10:17.512Z,68.50
2022-09-28T08:11:20.199Z,68.46
2022-09-28T08:12:22.896Z,68.43
2022-09-28T08:13:27.136Z,68.48
2022-09-28T08:14:34.523Z,67.84
2022-09-28T08:15:37.252Z,67.48
2022-09-28T08:16:39.849Z,67.05
2022-09-28T08:17:46.824Z,67.94
2022-09-28T08:18:50.107Z,67.88
2022-09-28T08:20:11.465Z,67.29
2022-09-28T08:21:32.620Z,67.63
2022-09-28T08:22:35.201Z,67.40
2022-09-28T08:23:38.586Z,68.35
2022-09-28T08:24:41.149Z,67.46
2022-09-28T08:25:51.078Z,66.87
2022-09-28T08:26:55.823Z,67.17
2022-09-28T08:27:58.418Z,67.81
2022-09-28T08:29:01.171Z,67.84
2022-09-28T08:30:04.144Z,66.64
2022-09-28T08:31:07.615Z,66.93
2022-09-28T08:32:11.077Z,67.36
2022-09-28T08:33:15.131Z,67.70
2022-09-28T08:34:19.084Z,67.04
2022-09-28T08:35:21.780Z,66.90
2022-09-28T08:36:24.617Z,66.76
2022-09-28T08:37:27.473Z,65.52
2022-09-28T08:38:31.371Z,65.28
2022-09-28T08:39:34.832Z,65.22
2022-09-28T08:40:54.982Z,65.46
2022-09-28T08:42:00.587Z,64.73
2022-09-28T08:43:20.793Z,64.46
2022-09-28T08:44:25.980Z,64.31
2022-09-28T08:45:31.737Z,64.82
2022-09-28T08:47:01.345Z,66.00
2022-09-28T08:48:38.068Z,65.11
2022-09-28T08:49:44.628Z,64.90
2022-09-28T08:51:10.951Z,63.09
2022-09-28T08:52:25.185Z,64.10
2022-09-28T08:53:46.105Z,62.85
2022-09-28T08:54:56.870Z,63.70
2022-09-28T08:56:05.086Z,63.27
2022-09-28T08:57:22.670Z,63.92
2022-09-28T08:58:32.086Z,63.51
2022-09-28T09:00:08.350Z,63.06
2022-09-28T09:01:19.086Z,63.08
2022-09-28T09:02:25.837Z,62.95
2022-09-28T09:03:37.298Z,62.96
2022-09-28T09:04:40.125Z,62.72
2022-09-28T09:05:57.042Z,63.74
2022-09-28T09:07:12.877Z,64.01
2022-09-28T09:08:57.448Z,63.86
2022-09-28T09:10:28.775Z,63.75
2022-09-28T09:11:44.587Z,62.26
2022-09-28T09:12:55.777Z,61.93
2022-09-28T09:14:07.904Z,61.62
2022-09-28T09:15:55.372Z,61.02
2022-09-28T09:17:22.991Z,60.66
2022-09-28T09:18:34.940Z,60.94
2022-09-28T09:19:40.623Z,61.53
2022-09-28T09:20:59.694Z,61.39
2022-09-28T09:22:28.254Z,61.36
2022-09-28T09:23:44.174Z,62.35
2022-09-28T09:25:11.246Z,61.59
2022-09-28T09:26:22.197Z,61.37
2022-09-28T09:27:53.648Z,61.50
2022-09-28T09:29:29.545Z,61.59
2022-09-28T09:31:05.524Z,59.99
2022-09-28T09:32:26.694Z,59.07
2022-09-28T09:33:47.664Z,60.65
2022-09-28T09:35:13.869Z,59.29
2022-09-28T09:36:34.480Z,59.17
2022-09-28T09:37:48.661Z,58.36
2022-09-28T09:38:54.168Z,59.95
2022-09-28T09:40:28.078Z,61.05
2022-09-28T09:41:44.651Z,59.24
2022-09-28T09:43:19.860Z,58.98
2022-09-28T09:44:28.168Z,56.97
2022-09-28T09:45:48.989Z,57.53
2022-09-28T09:46:58.034Z,58.45
2022-09-28T09:48:07.158Z,56.99
2022-09-28T09:49:27.095Z,58.59
2022-09-28T09:50:32.862Z,58.84
2022-09-28T09:51:52.606Z,56.95
2022-09-28T09:53:18.922Z,58.20
2022-09-28T09:54:29.172Z,58.24
2022-09-28T09:55:40.010Z,59.10
2022-09-28T09:56:53.784Z,59.36
2022-09-28T09:58:07.320Z,60.52
2022-09-28T09:59:19.016Z,60.60
2022-09-28T10:00:22.345Z,60.79
2022-09-28T10:01:34.812Z,60.88
2022-09-28T10:02:43.507Z,59.61
2022-09-28T10:03:48.828Z,58.78
2022-09-28T10:04:56.175Z,59.46
2022-09-28T10:06:14.496Z,59.28
2022-09-28T10:07:24.907Z,59.89
2022-09-28T10:08:29.274Z,60.66
2022-09-28T10:09:43.520Z,61.19
2022-09-28T10:10:51.756Z,61.65
2022-09-28T10:11:54.661Z,62.00
2022-09-28T10:12:57.558Z,60.92
2022-09-28T10:14:00.257Z,61.79
2022-09-28T10:15:07.798Z,61.68
2022-09-28T10:16:10.675Z,62.11
2022-09-28T10:17:20.356Z,62.97
2022-09-28T10:18:23.460Z,62.97
2022-09-28T10:19:34.124Z,63.11
2022-09-28T10:20:43.067Z,62.62
2022-09-28T10:21:50.408Z,63.63
2022-09-28T10:22:56.929Z,64.20
2022-09-28T10:24:02.942Z,64.20
2022-09-28T10:25:09.081Z,64.61
2022-09-28T10:26:25.073Z,63.06
2022-09-28T10:27:34.453Z,63.06
2022-09-28T10:28:51.567Z,63.00
2022-09-28T10:30:00.071Z,62.19
2022-09-28T10:31:41.159Z,61.79
2022-09-28T10:32:46.742Z,62.49
2022-09-28T10:33:53.494Z,60.62
2022-09-28T10:35:18.301Z,60.52
2022-09-28T10:36:22.038Z,60.46
2022-09-28T10:37:25.300Z,60.82
2022-09-28T10:38:31.188Z,59.46
2022-09-28T10:39:37.781Z,57.96
2022-09-28T10:40:52.000Z,58.39
2022-09-28T10:41:55.286Z,58.55
2022-09-28T10:43:06.575Z,59.11
2022-09-28T10:44:17.861Z,59.94
2022-09-28T10:45:23.454Z,60.17
2022-09-28T10:46:26.457Z,60.44
2022-09-28T10:47:34.454Z,60.68
2022-09-28T10:48:57.978Z,60.33
2022-09-28T10:50:01.145Z,58.90
2022-09-28T10:51:07.384Z,59.48
2022-09-28T10:52:40.038Z,60.66
2022-09-28T10:53:42.765Z,59.11
2022-09-28T10:54:53.814Z,59.63
2022-09-28T10:56:02.684Z,60.01
2022-09-28T10:57:28.076Z,59.28
2022-09-28T10:58:40.803Z,60.17
2022-09-28T10:59:44.017Z,60.68
2022-09-28T11:00:47.369Z,58.86
2022-09-28T11:01:58.373Z,56.87
2022-09-28T11:03:02.736Z,55.85
2022-09-28T11:04:10.712Z,56.71
2022-09-28T11:05:22.991Z,57.26
2022-09-28T11:06:47.084Z,56.47
2022-09-28T11:07:52.264Z,56.45
2022-09-28T11:08:58.114Z,56.88
2022-09-28T11:10:02.097Z,57.56
2022-09-28T11:11:09.113Z,57.04
2022-09-28T11:12:16.844Z,57.89
2022-09-28T11:13:19.643Z,57.59
2022-09-28T11:14:41.896Z,58.10
2022-09-28T11:15:45.603Z,58.21
2022-09-28T11:16:48.245Z,57.33
2022-09-28T11:17:50.879Z,57.98
2022-09-28T11:18:53.781Z,59.48
2022-09-28T11:19:58.853Z,58.67
2022-09-28T11:21:19.322Z,57.42
2022-09-28T11:22:27.339Z,57.37
2022-09-28T11:23:32.975Z,57.51
2022-09-28T11:24:36.069Z,57.51
2022-09-28T11:25:40.486Z,57.57
2022-09-28T11:26:46.067Z,57.16
2022-09-28T11:27:51.410Z,54.21
2022-09-28T11:28:54.362Z,55.29
2022-09-28T11:29:59.278Z,55.02
2022-09-28T11:31:03.135Z,54.90
2022-09-28T11:32:06.598Z,55.62
2022-09-28T11:33:29.396Z,54.96
2022-09-28T11:34:58.698Z,54.02
2022-09-28T11:36:08.660Z,54.20
2022-09-28T11:37:32.420Z,53.56
2022-09-28T11:38:55.469Z,54.79
2022-09-28T11:40:24.103Z,55.07
2022-09-28T11:41:42.155Z,55.75
2022-09-28T11:42:56.578Z,55.23
2022-09-28T11:44:08.618Z,57.10
2022-09-28T11:45:16.753Z,56.45
2022-09-28T11:46:25.251Z,56.69
2022-09-28T11:47:54.792Z,56.27
2022-09-28T11:49:26.753Z,55.20
2022-09-28T11:50:48.859Z,53.01
2022-09-28T11:51:53.385Z,53.28
2022-09-28T11:53:14.396Z,54.66
2022-09-28T11:54:50.462Z,54.66
2022-09-28T11:56:08.662Z,54.41
2022-09-28T11:57:25.505Z,54.53
2022-09-28T11:58:39.554Z,53.92
2022-09-28T12:00:02.779Z,53.25
2022-09-28T12:01:27.926Z,52.92
2022-09-28T12:02:43.067Z,53.62
2022-09-28T12:03:51.965Z,53.33
2022-09-28T12:05:25.240Z,53.00
2022-09-28T12:06:38.139Z,50.44
2022-09-28T12:07:47.364Z,52.34
2022-09-28T12:08:56.642Z,51.52
2022-09-28T12:10:20.890Z,52.63
2022-09-28T12:11:52.843Z,53.14
2022-09-28T12:13:13.473Z,53.42
2022-09-28T12:14:28.757Z,54.46
2022-09-28T12:16:07.740Z,54.00
2022-09-28T12:17:29.900Z,53.75
2022-09-28T12:18:32.899Z,53.25
2022-09-28T12:20:07.601Z,53.18
2022-09-28T12:21:28.659Z,54.02
2022-09-28T12:22:41.370Z,54.87
2022-09-28T12:23:45.036Z,54.36
2022-09-28T12:24:51.363Z,54.15
2022-09-28T12:25:59.562Z,54.46
2022-09-28T12:27:14.763Z,53.50
2022-09-28T12:28:57.056Z,55.23
2022-09-28T12:30:13.893Z,54.91
2022-09-28T12:31:24.246Z,54.59
2022-09-28T12:32:42.175Z,55.24
2022-09-28T12:33:49.110Z,55.19
2022-09-28T12:34:51.883Z,56.10
2022-09-28T12:36:09.734Z,56.45
2022-09-28T12:37:37.200Z,57.36
2022-09-28T12:39:21.708Z,57.33
2022-09-28T12:40:39.070Z,55.26
2022-09-28T12:42:20.462Z,55.06
2022-09-28T12:43:30.258Z,56.25
2022-09-28T12:44:44.559Z,56.71
2022-09-28T12:46:10.469Z,56.89
2022-09-28T12:47:37.695Z,56.24
2022-09-28T12:49:24.087Z,57.97
2022-09-28T12:50:39.088Z,57.94
2022-09-28T12:52:06.157Z,57.28
2022-09-28T12:53:45.815Z,56.82
2022-09-28T12:55:00.546Z,56.63
2022-09-28T12:56:04.678Z,55.38
2022-09-28T12:57:29.118Z,55.60
2022-09-28T12:58:39.286Z,54.49
2022-09-28T13:00:25.359Z,54.72
2022-09-28T13:01:43.073Z,55.41
2022-09-28T13:03:10.208Z,56.06
2022-09-28T13:04:40.341Z,57.00
2022-09-28T13:06:06.137Z,56.86
2022-09-28T13:07:26.286Z,56.75
2022-09-28T13:08:44.045Z,57.42
2022-09-28T13:09:59.699Z,58.80
2022-09-28T13:11:11.824Z,58.36
2022-09-28T13:12:42.007Z,58.41
2022-09-28T13:14:13.733Z,58.98
2022-09-28T13:15:52.221Z,59.16
2022-09-28T13:17:31.867Z,60.35
2022-09-28T13:19:11.572Z,59.13
2022-09-28T13:20:36.279Z,58.78
2022-09-28T13:21:51.218Z,58.26
2022-09-28T13:23:09.868Z,58.51
2022-09-28T13:24:31.593Z,58.05
2022-09-28T13:25:44.935Z,58.24
2022-09-28T13:26:49.348Z,58.58
2022-09-28T13:28:06.021Z,59.42
2022-09-28T13:30:28.028Z,59.17
2022-09-28T13:31:37.075Z,59.50
2022-09-28T13:32:45.626Z,59.38
2022-09-28T13:33:50.688Z,57.60
2022-09-28T13:35:02.450Z,58.37
2022-09-28T13:36:26.776Z,58.31
2022-09-28T13:37:30.124Z,57.28
2022-09-28T13:38:49.730Z,57.75
2022-09-28T13:39:57.045Z,57.46
2022-09-28T13:41:08.387Z,57.51
2022-09-28T13:42:38.444Z,57.34
2022-09-28T13:43:50.815Z,57.64
2022-09-28T13:45:12.699Z,58.14
2022-09-28T13:46:38.716Z,58.49
2022-09-28T13:47:54.088Z,59.30
2022-09-28T13:49:13.404Z,59.63
2022-09-28T13:50:37.999Z,59.76
2022-09-28T13:52:02.661Z,59.58
2022-09-28T13:53:39.465Z,59.48
2022-09-28T13:55:03.825Z,58.41
2022-09-28T13:56:21.950Z,58.67
2022-09-28T13:57:46.663Z,58.57
2022-09-28T13:59:02.594Z,56.66
2022-09-28T14:03:22.640Z,55.51
2022-09-28T14:07:39.688Z,55.93
2022-09-28T14:09:25.732Z,55.83
2022-09-28T14:10:56.743Z,55.47
2022-09-28T14:15:29.093Z,56.05
2022-09-28T14:16:34.192Z,56.03
2022-09-28T14:18:19.450Z,54.69
2022-09-28T14:19:31.938Z,54.40
2022-09-28T14:20:35.912Z,54.51
2022-09-28T14:22:20.839Z,54.88
2022-09-28T14:25:20.362Z,55.35
2022-09-28T14:26:41.929Z,54.55
2022-09-28T14:27:55.687Z,55.68
2022-09-28T14:29:36.435Z,55.59
2022-09-28T14:30:42.622Z,56.24
2022-09-28T14:32:20.722Z,56.39
2022-09-28T14:34:55.253Z,57.37
2022-09-28T14:36:05.487Z,57.16
2022-09-28T14:43:41.657Z,57.76
2022-09-28T14:45:06.668Z,58.05
2022-09-28T14:49:25.554Z,58.41
2022-09-28T14:50:29.937Z,58.06
2022-09-28T14:53:11.172Z,58.82
2022-09-28T14:54:22.044Z,58.64
2022-09-28T14:57:30.428Z,58.77
2022-09-28T14:58:36.990Z,58.57
2022-09-28T14:59:49.992Z,59.12
2022-09-28T15:01:12.799Z,59.40
2022-09-28T15:02:24.534Z,59.46
2022-09-28T15:03:30.042Z,59.23
2022-09-28T15:04:39.682Z,59.30
2022-09-28T15:05:45.002Z,59.97
2022-09-28T15:06:53.078Z,59.43
2022-09-28T15:07:56.692Z,59.54
2022-09-28T15:09:02.801Z,60.05
2022-09-28T15:11:30.897Z,60.29
2022-09-28T15:12:34.171Z,60.85
2022-09-28T15:13:38.329Z,60.68
2022-09-28T15:14:55.546Z,60.99
2022-09-28T15:16:18.660Z,61.18
2022-09-28T15:20:38.245Z,60.86
2022-09-28T15:23:09.430Z,61.78
2022-09-28T15:24:34.431Z,60.78
2022-09-28T15:25:37.464Z,60.58
2022-09-28T15:26:53.659Z,61.48
2022-09-28T15:28:18.859Z,61.20
2022-09-28T15:29:23.405Z,61.52
2022-09-28T15:30:35.314Z,61.72
2022-09-28T15:32:00.059Z,61.54
2022-09-28T15:33:23.880Z,61.66
2022-09-28T15:34:52.220Z,61.77
2022-09-28T15:36:03.928Z,62.60
2022-09-28T15:37:11.804Z,63.04
2022-09-28T15:39:51.840Z,62.13